Time;durP1;ratioP1;P1;durP2;ratioP2;P2;SDS_P1;SDS_P2;PMS_P1;PMS_P2;Temp;Humidity;BMP_temperature;BMP_pressure;BME280_temperature;BME280_humidity;BME280_pressure;Samples;Min_cycle;Max_cycle;Signal;HPM_P1;HPM_P2
2023/01/15 00:02:11;;;;;;;0.28;0.20;;;;;;;8.17;100.00;96791.81;15279957;19;20526;-81
2023/01/15 00:07:36;;;;;;;0.10;0.10;;;;;;;8.24;100.00;96767.75;15281609;19;20097;-79
2023/01/15 00:13:00;;;;;;;0.10;0.10;;;;;;;8.31;100.00;96749.06;15286043;19;20078;-80
2023/01/15 00:18:28;;;;;;;0.43;0.10;;;;;;;8.35;100.00;96736.91;15278525;19;20354;-78
2023/01/15 00:29:30;;;;;;;0.25;0.20;;;;;;;8.43;100.00;96714.50;15284148;19;20018;-80
2023/01/15 00:34:58;;;;;;;0.20;0.10;;;;;;;8.47;100.00;96695.16;15284228;19;20011;-79
2023/01/15 00:40:23;;;;;;;0.10;0.10;;;;;;;8.54;100.00;96689.88;15283459;19;20019;-80
2023/01/15 00:45:47;;;;;;;0.20;0.00;;;;;;;8.58;100.00;96679.63;15283016;19;20029;-79
2023/01/15 00:51:16;;;;;;;0.40;0.28;;;;;;;8.58;100.00;96663.50;15278531;19;20022;-81
2023/01/15 00:56:40;;;;;;;0.17;0.15;;;;;;;8.58;100.00;96669.69;15283400;19;20011;-80
2023/01/15 01:02:06;;;;;;;0.47;0.10;;;;;;;8.58;100.00;96658.13;15288355;19;20014;-79
2023/01/15 01:07:34;;;;;;;0.10;0.10;;;;;;;8.61;100.00;96682.75;15287554;19;20023;-81
2023/01/15 01:12:59;;;;;;;0.10;0.10;;;;;;;8.60;100.00;96656.91;15289476;19;20019;-78
2023/01/15 01:18:23;;;;;;;0.10;0.10;;;;;;;8.62;100.00;96680.88;15287099;19;20006;-82
2023/01/15 01:23:51;;;;;;;0.10;0.10;;;;;;;8.67;100.00;96682.97;15284079;19;20456;-81
2023/01/15 01:29:16;;;;;;;0.08;0.05;;;;;;;8.71;100.00;96657.41;15278523;19;20067;-81
2023/01/15 01:34:41;;;;;;;0.20;0.10;;;;;;;8.75;100.00;96693.59;15297862;19;20074;-80
2023/01/15 01:40:09;;;;;;;0.05;0.05;;;;;;;8.89;100.00;96671.19;15295747;19;20027;-81
2023/01/15 01:45:35;;;;;;;0.08;0.08;;;;;;;8.92;100.00;96660.06;15299037;19;20747;-78
2023/01/15 01:51:01;;;;;;;0.30;0.20;;;;;;;8.94;100.00;96651.81;15298742;19;20011;-79
2023/01/15 01:56:31;;;;;;;1.65;0.10;;;;;;;9.00;100.00;96642.16;15294985;19;20010;-81
2023/01/15 02:02:03;;;;;;;0.10;0.10;;;;;;;9.04;100.00;96614.72;15288241;19;20379;-80
2023/01/15 02:07:32;;;;;;;0.45;0.10;;;;;;;9.08;100.00;96607.91;15298177;19;20416;-80
2023/01/15 02:13:09;;;;;;;0.10;0.08;;;;;;;9.17;100.00;96613.16;15298952;19;20014;-82
2023/01/15 02:18:42;;;;;;;0.00;0.00;;;;;;;9.21;100.00;96599.13;15297386;19;20021;-80
2023/01/15 02:24:22;;;;;;;0.00;0.00;;;;;;;9.28;100.00;96611.75;15296196;19;20501;-80
2023/01/15 02:29:58;;;;;;;0.10;0.10;;;;;;;9.34;100.00;96602.91;15294814;19;20042;-82
2023/01/15 02:35:42;;;;;;;0.38;0.08;;;;;;;9.37;100.00;96597.13;15296148;19;20007;-81
2023/01/15 02:41:15;;;;;;;0.10;0.10;;;;;;;9.40;100.00;96591.34;15288059;19;20122;-82
2023/01/15 02:46:45;;;;;;;0.10;0.00;;;;;;;9.43;100.00;96590.13;15289931;19;20121;-80
2023/01/15 02:52:17;;;;;;;0.40;0.10;;;;;;;9.42;100.00;96583.94;15291130;19;20014;-80
2023/01/15 02:57:45;;;;;;;0.38;0.10;;;;;;;9.42;100.00;96583.94;15281990;19;20038;-79
2023/01/15 03:03:19;;;;;;;0.20;0.00;;;;;;;9.38;100.00;96574.59;15287960;19;20038;-79
2023/01/15 03:08:44;;;;;;;0.10;0.00;;;;;;;9.40;100.00;96573.41;15276953;19;20035;-46
2023/01/15 03:14:16;;;;;;;0.52;0.20;;;;;;;9.38;100.00;96579.97;15276206;19;20414;-49
2023/01/15 03:19:50;;;;;;;0.10;0.10;;;;;;;9.40;100.00;96549.22;15271867;19;20032;-51
2023/01/15 03:25:13;;;;;;;1.00;0.10;;;;;;;9.42;100.00;96559.75;15271348;19;20022;-46
2023/01/15 03:30:40;;;;;;;0.65;0.00;;;;;;;9.43;100.00;96561.41;15266096;19;20006;-47
2023/01/15 03:36:09;;;;;;;0.10;0.08;;;;;;;9.46;100.00;96563.69;15272191;19;20078;-46
2023/01/15 03:41:51;;;;;;;0.08;0.08;;;;;;;9.45;100.00;96551.28;15271715;19;20018;-46
2023/01/15 03:47:27;;;;;;;0.00;0.00;;;;;;;9.43;100.00;96560.56;15273943;19;20388;-47
2023/01/15 03:53:05;;;;;;;0.10;0.10;;;;;;;9.42;100.00;96583.94;15272366;19;20493;-49
2023/01/15 03:58:38;;;;;;;0.90;0.10;;;;;;;9.38;100.00;96548.56;15274922;19;20019;-46
2023/01/15 04:04:10;;;;;;;0.70;0.20;;;;;;;8.93;100.00;96634.06;15269068;19;20011;-46
2023/01/15 04:09:48;;;;;;;0.75;0.15;;;;;;;8.14;100.00;96659.94;15267424;19;20022;-48
2023/01/15 04:15:14;;;;;;;0.10;0.10;;;;;;;7.93;100.00;96696.41;15272830;19;20384;-47
2023/01/15 04:20:38;;;;;;;0.00;0.00;;;;;;;7.59;100.00;96702.34;15271127;19;20010;-47
2023/01/15 04:26:06;;;;;;;0.20;0.10;;;;;;;7.37;100.00;96711.09;15266897;19;20014;-50
2023/01/15 04:31:32;;;;;;;0.00;0.00;;;;;;;7.26;100.00;96724.94;15272810;19;20013;-49
2023/01/15 04:36:57;;;;;;;0.30;0.08;;;;;;;7.17;100.00;96704.59;15268973;19;20359;-47
2023/01/15 04:48:03;;;;;;;0.40;0.10;;;;;;;7.01;100.00;96716.31;15269664;19;20745;-49
2023/01/15 04:53:27;;;;;;;0.50;0.30;;;;;;;6.95;100.00;96707.16;15270550;19;20508;-47
2023/01/15 04:58:55;;;;;;;0.10;0.10;;;;;;;6.87;100.00;96745.53;15270235;19;20074;-48
2023/01/15 05:04:20;;;;;;;0.20;0.10;;;;;;;6.83;100.00;96759.44;15272129;19;20057;-50
2023/01/15 05:09:53;;;;;;;0.10;0.10;;;;;;;6.81;100.00;96745.41;15275803;19;20024;-50
2023/01/15 05:15:21;;;;;;;0.05;0.05;;;;;;;6.76;100.00;96759.31;15281288;19;20017;-49
2023/01/15 05:20:46;;;;;;;0.17;0.17;;;;;;;6.70;100.00;96746.69;15282292;19;20039;-51
2023/01/15 05:26:11;;;;;;;0.20;0.20;;;;;;;6.63;100.00;96773.31;15277874;19;20049;-50
2023/01/15 05:31:40;;;;;;;0.10;0.10;;;;;;;6.57;100.00;96771.31;15276364;19;20085;-51
2023/01/15 05:37:05;;;;;;;0.90;0.20;;;;;;;6.47;100.00;96774.22;15283692;19;20050;-49
2023/01/15 05:42:30;;;;;;;0.28;0.20;;;;;;;6.35;100.00;96789.03;15271479;19;20026;-48
2023/01/15 05:47:58;;;;;;;0.10;0.10;;;;;;;6.28;100.00;96823.66;15277165;19;20317;-49
2023/01/15 05:53:22;;;;;;;0.10;0.10;;;;;;;6.19;100.00;96820.16;15281685;19;20014;-49
2023/01/15 05:58:47;;;;;;;0.35;0.20;;;;;;;6.10;100.00;96810.50;15278169;19;20861;-48
2023/01/15 06:04:16;;;;;;;0.20;0.20;;;;;;;5.77;100.00;96837.28;15277804;19;20026;-50
2023/01/15 06:09:41;;;;;;;0.25;0.17;;;;;;;5.53;100.00;96863.03;15278732;19;20077;-48
2023/01/15 06:15:06;;;;;;;0.20;0.20;;;;;;;5.28;100.00;96862.19;15275540;19;20010;-49
2023/01/15 06:20:37;;;;;;;0.68;0.25;;;;;;;5.03;100.00;96871.03;15272257;19;20467;-50
2023/01/15 06:26:01;;;;;;;0.20;0.20;;;;;;;4.85;100.00;96897.84;15279528;19;20078;-49
2023/01/15 06:31:28;;;;;;;0.20;0.20;;;;;;;4.63;100.00;96907.28;15274405;19;20077;-48
2023/01/15 06:36:55;;;;;;;0.20;0.20;;;;;;;4.41;100.00;96871.38;15278925;19;20014;-52
2023/01/15 06:47:57;;;;;;;0.20;0.20;;;;;;;4.20;100.00;96909.09;15275125;19;20035;-47
2023/01/15 06:53:26;;;;;;;0.75;0.30;;;;;;;4.05;100.00;96904.34;15270200;19;20808;-48
2023/01/15 06:58:51;;;;;;;0.30;0.30;;;;;;;3.96;100.00;96946.06;15272807;19;20029;-50
2023/01/15 07:04:16;;;;;;;0.47;0.30;;;;;;;3.86;100.00;96950.66;15272446;19;20503;-48
2023/01/15 07:09:43;;;;;;;0.50;0.50;;;;;;;3.84;100.00;96973.97;15265726;19;20018;-52
2023/01/15 07:15:09;;;;;;;0.50;0.40;;;;;;;3.82;100.00;96987.44;15265314;19;20014;-55
2023/01/15 07:20:34;;;;;;;0.40;0.40;;;;;;;3.83;100.00;97004.25;15270133;19;20021;-52
2023/01/15 07:26:02;;;;;;;0.50;0.50;;;;;;;3.87;100.00;97020.78;15268067;19;20018;-54
2023/01/15 07:31:26;;;;;;;0.40;0.40;;;;;;;3.89;100.00;97016.13;15266427;19;20033;-52
2023/01/15 07:36:51;;;;;;;0.35;0.35;;;;;;;3.93;100.00;97036.13;15250549;19;20014;-53
2023/01/15 07:53:34;;;;;;;0.20;0.20;;;;;;;3.94;100.00;97011.19;15272355;19;20017;-51
2023/01/15 07:59:02;;;;;;;1.40;0.28;;;;;;;3.92;100.00;97002.50;15267632;19;20581;-53
2023/01/15 08:04:26;;;;;;;1.00;0.50;;;;;;;3.93;100.00;97017.50;15269219;19;20058;-52
2023/01/15 08:09:57;;;;;;;0.30;0.30;;;;;;;3.92;100.00;97014.00;15270671;19;20653;-54
2023/01/15 08:15:25;;;;;;;0.60;0.60;;;;;;;3.89;100.00;96976.16;15190333;19;20022;-51
2023/01/15 08:20:50;;;;;;;0.10;0.10;;;;;;;3.89;100.00;96942.38;15265005;19;20022;-52
2023/01/15 08:26:15;;;;;;;0.10;0.10;;;;;;;3.86;100.00;96918.69;15272768;19;20027;-52
2023/01/15 08:31:42;;;;;;;0.25;0.20;;;;;;;3.83;100.00;96919.00;15264605;19;20029;-53
2023/01/15 08:37:07;;;;;;;0.35;0.20;;;;;;;3.80;100.00;96944.13;15265687;19;20014;-52
2023/01/15 08:42:32;;;;;;;0.20;0.17;;;;;;;3.79;100.00;96939.78;15271984;19;20109;-51
2023/01/15 08:48:00;;;;;;;0.20;0.20;;;;;;;3.81;100.00;96958.31;15265357;19;20016;-56
2023/01/15 08:53:28;;;;;;;0.20;0.20;;;;;;;3.81;100.00;96942.31;15264927;19;20373;-56
2023/01/15 08:58:53;;;;;;;0.20;0.20;;;;;;;3.82;100.00;96960.81;15266481;19;20037;-55
2023/01/15 09:04:22;;;;;;;0.17;0.17;;;;;;;3.89;100.00;96945.03;15273338;19;20082;-55
2023/01/15 09:09:53;;;;;;;0.17;0.15;;;;;;;3.98;100.00;96949.41;15262704;19;20654;-56
2023/01/15 09:15:20;;;;;;;0.20;0.20;;;;;;;4.04;100.00;96963.13;15264351;19;20039;-56
2023/01/15 09:20:47;;;;;;;0.20;0.20;;;;;;;4.07;100.00;96957.47;15265493;19;20021;-53
2023/01/15 09:26:28;;;;;;;0.63;0.20;;;;;;;4.08;100.00;96961.81;15263836;19;20089;-56
2023/01/15 09:31:53;;;;;;;0.20;0.20;;;;;;;4.13;100.00;96972.84;15267349;19;20024;-56
2023/01/15 09:37:22;;;;;;;0.70;0.32;;;;;;;4.25;100.00;96971.59;15262791;19;20025;-57
2023/01/15 09:42:57;;;;;;;0.38;0.22;;;;;;;4.27;100.00;96969.59;15260166;19;20024;-59
2023/01/15 09:48:46;;;;;;;0.40;0.30;;;;;;;4.27;100.00;96961.63;15262416;19;20017;-57
2023/01/15 09:54:28;;;;;;;0.50;0.30;;;;;;;4.27;100.00;96961.63;15278915;19;20032;-59
2023/01/15 09:59:59;;;;;;;0.30;0.30;;;;;;;4.29;100.00;96964.94;15276327;19;20022;-58
2023/01/15 10:05:29;;;;;;;0.45;0.25;;;;;;;4.30;100.00;96995.94;15272706;19;20740;-60
2023/01/15 10:11:07;;;;;;;0.28;0.25;;;;;;;4.26;100.00;97005.25;15277176;19;20648;-61
2023/01/15 10:16:35;;;;;;;0.40;0.30;;;;;;;4.24;100.00;96995.72;15277521;19;20737;-58
2023/01/15 10:22:06;;;;;;;0.63;0.30;;;;;;;4.21;100.00;96996.88;15268296;19;20025;-59
2023/01/15 10:27:35;;;;;;;0.70;0.50;;;;;;;4.20;100.00;96995.19;15270985;19;20025;-58
2023/01/15 10:33:04;;;;;;;0.70;0.70;;;;;;;4.26;100.00;96997.25;15275925;19;20508;-59
2023/01/15 10:38:35;;;;;;;0.45;0.28;;;;;;;4.36;100.00;97014.97;15275263;19;20025;-58
2023/01/15 10:44:08;;;;;;;0.60;0.30;;;;;;;4.50;100.00;97022.41;15282716;19;20018;-58
2023/01/15 10:49:34;;;;;;;0.55;0.20;;;;;;;4.58;100.00;97014.44;15270870;19;20014;-59
2023/01/15 10:55:06;;;;;;;0.40;0.25;;;;;;;4.66;100.00;97010.97;15283942;19;20026;-57
2023/01/15 11:00:34;;;;;;;0.40;0.30;;;;;;;4.69;100.00;96999.16;15272772;19;20025;-61
2023/01/15 11:05:59;;;;;;;0.57;0.30;;;;;;;4.70;100.00;96991.00;15271700;19;20686;-56
2023/01/15 11:23:10;;;;;;;0.68;0.20;;;;;;;4.60;100.00;96983.13;15277628;19;20015;-55
2023/01/15 11:28:45;;;;;;;0.20;0.20;;;;;;;4.60;100.00;97001.78;15280085;19;20077;-54
2023/01/15 11:34:23;;;;;;;0.20;0.20;;;;;;;4.59;100.00;96969.91;15274987;19;20081;-59
2023/01/15 11:39:46;;;;;;;0.30;0.30;;;;;;;4.55;100.00;96992.59;15272111;19;20376;-58
2023/01/15 11:51:03;;;;;;;0.10;0.10;;;;;;;4.44;100.00;97015.00;15270171;19;20018;-59
2023/01/15 11:56:30;;;;;;;0.20;0.20;;;;;;;4.38;100.00;97011.16;15271115;19;20017;-55
2023/01/15 12:02:02;;;;;;;0.30;0.30;;;;;;;4.40;100.00;97006.50;15272808;19;20085;-57
2023/01/15 12:07:31;;;;;;;0.30;0.30;;;;;;;4.36;100.00;97004.31;15270042;19;20020;-56
2023/01/15 12:13:13;;;;;;;0.55;0.38;;;;;;;4.35;100.00;97002.63;15278025;19;20021;-57
2023/01/15 12:18:53;;;;;;;0.30;0.30;;;;;;;4.32;100.00;96988.63;15268326;19;20078;-57
2023/01/15 12:24:38;;;;;;;0.20;0.13;;;;;;;4.37;100.00;97000.66;15277398;19;20017;-58
2023/01/15 12:30:07;;;;;;;0.30;0.30;;;;;;;4.37;100.00;96987.31;15267253;19;20020;-56
2023/01/15 12:35:38;;;;;;;0.20;0.20;;;;;;;4.37;100.00;96987.31;15277894;19;20078;-58
2023/01/15 12:41:12;;;;;;;0.43;0.40;;;;;;;4.31;100.00;97007.44;15266243;19;20495;-58
2023/01/15 12:46:41;;;;;;;0.50;0.50;;;;;;;4.30;100.00;96965.78;15267487;19;20382;-57
2023/01/15 12:52:12;;;;;;;0.30;0.30;;;;;;;4.25;100.00;96960.94;15272044;19;20395;-53
2023/01/15 12:57:45;;;;;;;0.20;0.20;;;;;;;4.21;100.00;96954.22;15270182;19;20021;-55
2023/01/15 13:03:22;;;;;;;0.10;0.10;;;;;;;4.15;100.00;96989.53;15275093;19;20077;-56
2023/01/15 13:08:54;;;;;;;0.28;0.28;;;;;;;4.14;100.00;96994.00;15264865;19;20017;-78
2023/01/15 13:14:24;;;;;;;0.23;0.23;;;;;;;4.12;100.00;96973.84;15296916;19;20014;-78
2023/01/15 13:19:58;;;;;;;0.30;0.30;;;;;;;4.14;100.00;97002.00;15280544;19;20014;-80
2023/01/15 13:25:36;;;;;;;0.30;0.30;;;;;;;4.13;100.00;96978.19;15286975;19;20011;-76
2023/01/15 13:31:11;;;;;;;0.20;0.20;;;;;;;4.20;100.00;97002.38;15336873;19;20027;-78
2023/01/15 13:36:42;;;;;;;0.20;0.20;;;;;;;4.22;100.00;97013.72;15322934;19;20006;-78
2023/01/15 13:48:10;;;;;;;0.30;0.30;;;;;;;4.19;100.00;97024.69;15310645;19;20082;-78
2023/01/15 13:53:39;;;;;;;0.60;0.50;;;;;;;4.19;100.00;97033.50;15313683;19;20014;-78
2023/01/15 13:59:05;;;;;;;1.13;0.40;;;;;;;4.14;100.00;97049.16;15300246;19;20031;-77
2023/01/15 14:04:44;;;;;;;0.30;0.20;;;;;;;4.12;100.00;97061.78;15311811;19;20037;-78
2023/01/15 14:10:26;;;;;;;0.52;0.30;;;;;;;4.18;100.00;97085.13;15300581;19;20022;-77
2023/01/15 14:16:01;;;;;;;0.73;0.30;;;;;;;4.20;100.00;97093.81;15296971;19;20030;-78
2023/01/15 14:21:36;;;;;;;1.88;0.40;;;;;;;4.20;100.00;97091.16;15301730;19;20010;-77
2023/01/15 14:27:08;;;;;;;0.45;0.30;;;;;;;4.26;100.00;97101.22;15295533;19;20019;-78
2023/01/15 14:32:49;;;;;;;0.47;0.30;;;;;;;4.27;100.00;97105.56;15295220;19;20018;-78
2023/01/15 14:38:23;;;;;;;0.30;0.30;;;;;;;4.26;100.00;97122.56;15296398;19;20022;-78
2023/01/15 14:43:51;;;;;;;0.40;0.30;;;;;;;4.15;100.00;97126.28;15293373;19;20547;-78
2023/01/15 14:49:38;;;;;;;0.80;0.30;;;;;;;4.22;100.00;97139.84;15300161;19;20500;-77
2023/01/15 14:55:05;;;;;;;0.52;0.47;;;;;;;4.35;100.00;97135.94;15305146;19;20014;-78
2023/01/15 15:00:32;;;;;;;0.85;0.30;;;;;;;4.38;100.00;97147.13;15297888;19;20015;-79
2023/01/15 15:05:57;;;;;;;0.70;0.38;;;;;;;4.34;100.00;97172.44;15292501;19;20024;-79
2023/01/15 15:17:28;;;;;;;0.57;0.50;;;;;;;4.05;100.00;97173.50;15271157;19;20016;-55
2023/01/15 15:22:56;;;;;;;1.88;0.52;;;;;;;3.96;100.00;97172.56;15271929;19;20086;-78
2023/01/15 15:28:24;;;;;;;1.20;0.47;;;;;;;3.88;100.00;97166.31;15274162;19;20017;-77
2023/01/15 15:33:50;;;;;;;1.13;0.50;;;;;;;3.84;100.00;97155.09;15277891;19;20020;-78
2023/01/15 15:39:21;;;;;;;1.08;0.47;;;;;;;3.70;100.00;97170.59;15276123;19;20068;-79
2023/01/15 15:50:36;;;;;;;0.77;0.50;;;;;;;3.45;100.00;97179.31;15269224;19;20642;-78
2023/01/15 15:56:05;;;;;;;1.77;0.55;;;;;;;3.43;100.00;97176.78;15284414;19;20091;-79
2023/01/15 16:01:32;;;;;;;1.15;0.57;;;;;;;3.43;100.00;97186.59;15278224;19;20026;-78
2023/01/15 16:06:58;;;;;;;1.55;0.70;;;;;;;3.49;100.00;97162.03;15279799;19;20021;-77
2023/01/15 16:12:23;;;;;;;1.23;0.43;;;;;;;3.50;100.00;97171.69;15279841;19;20054;-79
2023/01/15 16:17:52;;;;;;;3.00;0.60;;;;;;;3.49;100.00;97167.34;15310174;19;20015;-75
2023/01/15 16:23:24;;;;;;;0.90;0.63;;;;;;;3.49;100.00;97165.56;14797043;19;10000491;-76
2023/01/15 16:28:55;;;;;;;1.02;0.75;;;;;;;3.49;100.00;97162.03;15277619;19;20023;-76
2023/01/15 16:34:24;;;;;;;0.73;0.60;;;;;;;3.49;100.00;97172.69;15274673;19;20010;-77
2023/01/15 16:39:53;;;;;;;1.02;0.80;;;;;;;3.49;100.00;97173.53;15277979;19;20142;-77
2023/01/15 16:45:30;;;;;;;1.73;1.10;;;;;;;3.46;100.00;97175.66;15282513;19;20014;-76
2023/01/15 16:51:56;;;;;;;2.80;1.50;;;;;;;3.51;100.00;97171.56;15286128;19;20014;-75
2023/01/15 16:57:34;;;;;;;0.95;0.73;;;;;;;3.60;100.00;97184.97;15271430;19;20026;-77
2023/01/15 17:02:59;;;;;;;1.05;0.60;;;;;;;3.65;100.00;97206.66;15295613;19;20006;-75
2023/01/15 17:08:30;;;;;;;2.38;0.90;;;;;;;3.68;100.00;97209.03;15305392;19;20014;-77
2023/01/15 17:13:59;;;;;;;1.97;0.60;;;;;;;3.70;100.00;97204.41;15309750;19;20021;-78
2023/01/15 17:19:23;;;;;;;0.93;0.60;;;;;;;3.78;100.00;97198.34;15306855;19;20025;-79
2023/01/15 17:24:56;;;;;;;1.10;0.70;;;;;;;3.78;100.00;97193.00;15310610;19;20082;-77
2023/01/15 17:30:29;;;;;;;1.90;0.70;;;;;;;3.79;100.00;97200.03;15304688;19;20028;-76
2023/01/15 17:35:59;;;;;;;1.23;0.70;;;;;;;3.76;100.00;97198.50;15327493;19;20027;-77
2023/01/15 17:41:29;;;;;;;1.83;0.73;;;;;;;3.69;100.00;97200.06;15339261;19;20017;-77
2023/01/15 17:47:05;;;;;;;1.60;0.70;;;;;;;3.62;100.00;97189.16;15356539;19;20014;-77
2023/01/15 17:52:33;;;;;;;2.15;0.85;;;;;;;3.59;100.00;97201.94;15310101;19;20018;-78
2023/01/15 18:09:59;;;;;;;1.52;0.80;;;;;;;3.36;100.00;97194.31;15304535;19;20018;-78
2023/01/15 18:15:23;;;;;;;2.15;0.95;;;;;;;3.37;100.00;97180.84;15290419;19;20014;-79
2023/01/15 18:20:51;;;;;;;1.70;0.77;;;;;;;3.32;100.00;97175.16;15283803;19;20010;-77
2023/01/15 18:26:16;;;;;;;1.85;0.80;;;;;;;3.40;100.00;97166.44;15282876;19;20018;-78
2023/01/15 18:31:42;;;;;;;1.50;0.80;;;;;;;3.46;100.00;97178.31;15278137;19;20558;-78
2023/01/15 18:37:09;;;;;;;1.58;0.80;;;;;;;3.37;100.00;97172.88;15288673;19;20101;-77
2023/01/15 18:48:15;;;;;;;1.50;0.70;;;;;;;3.32;100.00;97171.63;15291280;19;20018;-79
2023/01/15 18:53:43;;;;;;;0.88;0.68;;;;;;;3.46;100.00;97167.69;15284390;19;20027;-78
2023/01/15 18:59:09;;;;;;;2.40;0.80;;;;;;;3.35;100.00;97158.88;15282141;19;20006;-76
2023/01/15 19:04:35;;;;;;;1.70;0.75;;;;;;;3.39;100.00;97170.91;15283863;19;20379;-81
2023/01/15 19:10:02;;;;;;;1.48;0.88;;;;;;;3.38;100.00;97165.75;15291967;19;20063;-78
2023/01/15 19:21:09;;;;;;;1.92;0.80;;;;;;;3.44;100.00;97159.00;15283950;19;20002;-78
2023/01/15 19:26:47;;;;;;;1.60;0.90;;;;;;;3.39;100.00;97165.59;15285239;19;20102;-80
2023/01/15 19:32:14;;;;;;;1.75;0.75;;;;;;;3.39;100.00;97160.25;15288013;19;20006;-80
2023/01/15 19:37:40;;;;;;;1.38;0.70;;;;;;;3.63;100.00;97139.41;15289309;19;20011;-79
2023/01/15 19:54:54;;;;;;;1.70;0.65;;;;;;;3.67;100.00;97159.41;15284848;19;20018;-80
2023/01/15 20:00:11;;;;;;;2.58;0.80;;;;;;;3.60;100.00;97143.19;15285845;19;20066;-80
2023/01/15 20:05:36;;;;;;;1.33;0.70;;;;;;;3.61;100.00;97144.88;15288619;19;20042;-81
2023/01/15 20:11:00;;;;;;;0.82;0.60;;;;;;;3.69;100.00;97150.31;15291839;19;20031;-79
2023/01/15 20:16:27;;;;;;;2.00;0.80;;;;;;;3.69;100.00;97152.13;15320186;19;20015;-79
2023/01/15 20:21:52;;;;;;;1.85;0.80;;;;;;;3.67;100.00;97130.97;15277082;19;20006;-81
2023/01/15 20:27:17;;;;;;;1.17;0.70;;;;;;;3.64;100.00;97117.94;15288410;19;20082;-80
2023/01/15 20:32:46;;;;;;;1.13;0.80;;;;;;;3.62;100.00;97103.94;15279177;19;20007;-79
2023/01/15 20:38:11;;;;;;;1.30;0.70;;;;;;;3.58;100.00;97107.91;15282567;19;20011;-81
2023/01/15 20:49:27;;;;;;;0.85;0.50;;;;;;;3.60;100.00;97124.56;15287501;19;20108;-80
2023/01/15 20:54:52;;;;;;;0.90;0.60;;;;;;;3.57;100.00;97116.88;15272570;19;20010;-79
2023/01/15 21:00:19;;;;;;;1.13;0.75;;;;;;;3.55;100.00;97113.53;15274295;19;20041;-77
2023/01/15 21:05:47;;;;;;;0.65;0.50;;;;;;;3.61;100.00;97094.28;15281990;19;20011;-79
2023/01/15 21:39:19;;;;;;;0.95;0.40;;;;;;;3.68;100.00;97091.84;15260545;19;20259;-57
2023/01/15 21:44:44;;;;;;;1.90;0.60;;;;;;;3.70;100.00;97087.22;15257592;19;20046;-53
2023/01/15 21:50:09;;;;;;;2.47;0.50;;;;;;;3.72;100.00;97093.22;15270323;19;20019;-60
2023/01/15 21:55:36;;;;;;;2.20;0.70;;;;;;;3.68;100.00;97076.72;15280918;19;20022;-59
2023/01/15 22:01:01;;;;;;;1.20;0.80;;;;;;;3.67;100.00;97088.38;15266832;19;20014;-57
2023/01/15 22:06:25;;;;;;;1.83;0.50;;;;;;;3.54;100.00;97069.25;15279857;19;20540;-58
2023/01/15 22:11:53;;;;;;;1.35;0.73;;;;;;;3.51;100.00;97082.84;15279019;19;20011;-60
2023/01/15 22:17:18;;;;;;;0.70;0.60;;;;;;;3.50;100.00;97070.53;15270733;19;20014;-58
2023/01/15 22:22:42;;;;;;;1.15;0.50;;;;;;;3.48;100.00;97068.03;15274617;19;20366;-56
2023/01/15 22:28:10;;;;;;;1.02;0.60;;;;;;;3.52;100.00;97073.88;15278021;19;20014;-55
2023/01/15 22:33:35;;;;;;;1.50;0.68;;;;;;;3.60;100.00;97065.97;15273946;19;20014;-57
2023/01/15 22:38:59;;;;;;;1.75;0.70;;;;;;;3.66;100.00;97061.84;15271608;19;20061;-61
2023/01/15 22:44:27;;;;;;;1.00;0.70;;;;;;;3.62;100.00;97056.00;15275643;19;20018;-57
2023/01/15 22:49:52;;;;;;;1.45;0.80;;;;;;;3.50;100.00;97062.53;15267079;19;20026;-61
2023/01/15 22:55:18;;;;;;;0.95;0.50;;;;;;;3.42;100.00;97059.78;15273374;19;20031;-58
2023/01/15 23:00:46;;;;;;;1.75;0.73;;;;;;;3.32;100.00;97059.84;15269615;19;20163;-60
2023/01/15 23:06:12;;;;;;;1.73;0.80;;;;;;;3.24;100.00;97041.94;15276356;19;20096;-60
2023/01/15 23:11:38;;;;;;;1.42;0.80;;;;;;;3.13;100.00;97051.00;15275037;19;20035;-57
2023/01/15 23:17:05;;;;;;;1.98;0.88;;;;;;;3.02;100.00;97032.56;15276968;19;20018;-60
2023/01/15 23:22:31;;;;;;;2.30;0.80;;;;;;;2.91;100.00;97036.25;15267906;19;20029;-59
2023/01/15 23:27:55;;;;;;;2.08;0.95;;;;;;;2.86;100.00;97027.88;15272649;19;20077;-56
2023/01/15 23:33:24;;;;;;;2.17;0.90;;;;;;;2.80;100.00;97025.81;15266195;19;20030;-58
2023/01/15 23:38:56;;;;;;;1.17;0.75;;;;;;;2.75;100.00;97021.78;15273166;19;20018;-59
2023/01/15 23:50:04;;;;;;;2.83;0.90;;;;;;;2.66;100.00;97001.38;15269345;19;20094;-57
2023/01/15 23:55:29;;;;;;;2.90;1.00;;;;;;;2.60;100.00;96980.69;15264372;19;20027;-57
